createdAt,value
2017-07-10T00:01:50.167Z,89.90
2017-07-10T00:04:19.144Z,89.30
2017-07-10T00:06:47.376Z,89.20
2017-07-10T00:09:15.590Z,88.50
2017-07-10T00:11:43.787Z,88.70
2017-07-10T00:14:12.008Z,89.20
2017-07-10T00:16:40.215Z,89.00
2017-07-10T00:19:08.423Z,89.40
2017-07-10T00:21:36.632Z,90.00
2017-07-10T00:24:04.834Z,90.00
2017-07-10T00:26:33.155Z,90.10
2017-07-10T00:29:02.118Z,90.20
2017-07-10T00:31:30.341Z,90.20
2017-07-10T00:33:58.538Z,89.90
2017-07-10T00:36:26.748Z,89.50
2017-07-10T00:38:54.970Z,89.90
2017-07-10T00:41:23.240Z,90.00
2017-07-10T00:43:51.544Z,89.40
2017-07-10T00:46:19.767Z,89.40
2017-07-10T00:48:48.058Z,89.50
2017-07-10T00:51:16.327Z,89.30
2017-07-10T00:53:45.306Z,89.40
2017-07-10T00:56:13.513Z,89.30
2017-07-10T00:58:42.491Z,89.80
2017-07-10T01:01:10.689Z,89.80
2017-07-10T01:03:38.895Z,90.00
2017-07-10T01:06:07.233Z,90.20
2017-07-10T01:08:35.511Z,90.40
2017-07-10T01:11:03.771Z,90.20
2017-07-10T01:13:32.075Z,90.00
2017-07-10T01:16:01.034Z,90.30
2017-07-10T01:18:29.235Z,90.30
2017-07-10T01:20:58.217Z,90.20
2017-07-10T01:23:26.428Z,90.20
2017-07-10T01:25:54.629Z,90.20
2017-07-10T01:28:22.831Z,90.10
2017-07-10T01:30:51.239Z,90.20
2017-07-10T01:33:20.218Z,90.10
2017-07-10T01:35:48.423Z,90.10
2017-07-10T01:38:16.801Z,90.00
2017-07-10T01:40:45.162Z,90.10
2017-07-10T01:43:14.138Z,89.50
2017-07-10T01:45:42.342Z,89.50
2017-07-10T01:48:11.319Z,88.50
2017-07-10T01:50:39.520Z,88.40
2017-07-10T01:53:07.718Z,88.30
2017-07-10T01:55:36.065Z,88.10
2017-07-10T01:58:04.294Z,88.00
2017-07-10T02:00:32.629Z,88.20
2017-07-10T02:03:00.835Z,88.60
2017-07-10T02:05:29.176Z,88.90
2017-07-10T02:07:57.389Z,88.90
2017-07-10T02:10:25.590Z,88.20
2017-07-10T02:12:53.791Z,88.40
2017-07-10T02:15:22.083Z,88.20
2017-07-10T02:17:50.299Z,88.40
2017-07-10T02:20:18.505Z,88.50
2017-07-10T02:22:46.737Z,88.50
2017-07-10T02:25:14.983Z,88.60
2017-07-10T02:27:43.966Z,89.10
2017-07-10T02:30:12.175Z,89.10
2017-07-10T02:32:40.395Z,88.80
2017-07-10T02:35:08.597Z,88.30
2017-07-10T02:37:36.794Z,88.50
2017-07-10T02:40:05.272Z,88.40
2017-07-10T02:42:34.242Z,88.60
2017-07-10T02:45:02.449Z,88.60
2017-07-10T02:47:30.646Z,88.60
2017-07-10T02:49:58.994Z,88.60
2017-07-10T02:52:27.962Z,88.90
2017-07-10T02:54:56.167Z,88.80
2017-07-10T02:57:24.442Z,88.80
2017-07-10T02:59:52.639Z,88.80
2017-07-10T03:02:20.953Z,88.70
2017-07-10T03:04:49.156Z,88.70
2017-07-10T03:07:17.352Z,88.80
2017-07-10T03:09:45.611Z,88.30
2017-07-10T03:12:14.599Z,88.20
2017-07-10T03:14:42.815Z,88.10
2017-07-10T03:17:11.013Z,88.10
2017-07-10T03:19:39.214Z,88.70
2017-07-10T03:22:07.417Z,89.00
2017-07-10T03:24:36.397Z,89.40
2017-07-10T03:27:04.615Z,89.40
2017-07-10T03:29:32.811Z,89.20
2017-07-10T03:32:01.027Z,89.20
2017-07-10T03:34:29.229Z,89.10
2017-07-10T03:36:57.442Z,89.00
2017-07-10T03:39:25.802Z,89.50
2017-07-10T03:41:54.065Z,89.60
2017-07-10T03:44:22.319Z,89.70
2017-07-10T03:46:51.299Z,90.10
2017-07-10T03:49:19.513Z,90.10
2017-07-10T03:51:47.788Z,90.20
2017-07-10T03:54:16.081Z,90.30
2017-07-10T03:56:44.298Z,90.10
2017-07-10T03:59:12.507Z,90.20
2017-07-10T04:01:40.702Z,89.90
2017-07-10T04:04:08.919Z,89.50
2017-07-10T04:06:37.227Z,89.50
2017-07-10T04:09:06.196Z,90.00
2017-07-10T04:11:34.406Z,90.00
2017-07-10T04:14:03.492Z,90.20
2017-07-10T04:16:31.792Z,90.20
2017-07-10T04:18:59.991Z,90.10
2017-07-10T04:21:28.185Z,90.10
2017-07-10T04:23:56.397Z,90.10
2017-07-10T04:26:24.773Z,90.00
2017-07-10T04:28:52.959Z,89.20
2017-07-10T04:31:21.932Z,89.20
2017-07-10T04:33:50.337Z,89.10
2017-07-10T04:36:19.314Z,88.80
2017-07-10T04:38:47.718Z,88.80
2017-07-10T04:41:15.942Z,89.20
2017-07-10T04:43:44.267Z,89.30
2017-07-10T04:46:13.234Z,88.80
2017-07-10T04:48:41.524Z,88.80
2017-07-10T04:51:09.919Z,88.40
2017-07-10T04:53:38.903Z,88.30
2017-07-10T04:56:07.094Z,88.30
2017-07-10T04:58:35.397Z,87.60
2017-07-10T05:01:03.592Z,87.20
2017-07-10T05:03:31.804Z,87.00
2017-07-10T05:06:00.010Z,86.20
2017-07-10T05:08:28.253Z,86.30
2017-07-10T05:10:56.466Z,86.00
2017-07-10T05:13:24.822Z,87.00
2017-07-10T05:15:53.789Z,86.10
2017-07-10T05:18:22.096Z,85.90
2017-07-10T05:20:50.310Z,86.00
2017-07-10T05:23:18.563Z,86.30
2017-07-10T05:25:46.844Z,86.20
2017-07-10T05:28:15.142Z,86.60
2017-07-10T05:30:43.369Z,87.40
2017-07-10T05:33:11.652Z,87.70
2017-07-10T05:35:39.863Z,87.30
2017-07-10T05:38:08.072Z,86.80
2017-07-10T05:40:36.267Z,85.90
2017-07-10T05:43:04.585Z,85.70
2017-07-10T05:45:32.806Z,86.00
2017-07-10T05:48:01.009Z,85.80
2017-07-10T05:50:29.220Z,86.10
2017-07-10T05:52:57.419Z,85.10
2017-07-10T05:55:25.845Z,85.30
2017-07-10T05:57:54.248Z,85.50
2017-07-10T06:00:22.558Z,85.60
2017-07-10T06:02:50.778Z,85.00
2017-07-10T06:05:19.158Z,84.20
2017-07-10T06:07:47.374Z,83.80
2017-07-10T06:10:15.571Z,83.00
2017-07-10T06:12:43.798Z,82.90
2017-07-10T06:15:11.998Z,83.30
2017-07-10T06:17:40.195Z,82.60
2017-07-10T06:20:08.425Z,81.60
2017-07-10T06:22:36.617Z,81.50
2017-07-10T06:25:04.826Z,81.30
2017-07-10T06:27:33.033Z,81.30
2017-07-10T06:30:01.248Z,81.20
2017-07-10T06:32:29.502Z,81.00
2017-07-10T06:34:58.462Z,81.30
2017-07-10T06:37:26.692Z,81.10
2017-07-10T06:39:54.949Z,82.10
2017-07-10T06:42:23.927Z,81.90
2017-07-10T06:44:52.143Z,81.90
2017-07-10T06:47:20.607Z,81.30
2017-07-10T06:49:48.897Z,82.10
2017-07-10T06:52:17.098Z,83.20
2017-07-10T06:54:45.323Z,83.30
2017-07-10T06:57:13.536Z,83.20
2017-07-10T06:59:41.784Z,82.20
2017-07-10T07:02:10.071Z,82.30
2017-07-10T07:04:39.049Z,81.50
2017-07-10T07:07:07.277Z,81.50
2017-07-10T07:09:35.519Z,81.60
2017-07-10T07:12:03.823Z,81.90
2017-07-10T07:14:32.068Z,82.20
2017-07-10T07:17:01.054Z,83.60
2017-07-10T07:19:29.242Z,83.60
2017-07-10T07:21:58.215Z,82.50
2017-07-10T07:24:26.414Z,82.50
2017-07-10T07:26:54.632Z,81.90
2017-07-10T07:29:22.826Z,81.50
2017-07-10T07:31:51.040Z,81.00
2017-07-10T07:34:20.017Z,79.80
2017-07-10T07:36:48.230Z,79.80
2017-07-10T07:39:16.443Z,80.00
2017-07-10T07:41:44.661Z,78.70
2017-07-10T07:44:12.868Z,78.90
2017-07-10T07:46:41.091Z,79.30
2017-07-10T07:49:09.307Z,76.90
2017-07-10T07:51:37.632Z,76.10
2017-07-10T07:54:06.006Z,75.80
2017-07-10T07:56:34.215Z,76.80
2017-07-10T07:59:03.182Z,64.90
2017-07-10T08:01:31.403Z,64.70
2017-07-10T08:03:59.619Z,58.50
2017-07-10T08:06:27.830Z,56.90
2017-07-10T08:08:56.036Z,55.20
2017-07-10T08:11:24.321Z,54.90
2017-07-10T08:13:52.524Z,54.30
2017-07-10T08:16:21.062Z,54.10
2017-07-10T08:18:50.044Z,53.30
2017-07-10T08:21:18.237Z,53.20
2017-07-10T08:23:46.449Z,55.20
2017-07-10T08:26:14.666Z,58.80
2017-07-10T08:28:42.870Z,56.50
2017-07-10T08:31:11.156Z,57.60
2017-07-10T08:33:39.370Z,58.60
2017-07-10T08:36:07.695Z,59.10
2017-07-10T08:38:35.919Z,61.20
2017-07-10T08:41:04.135Z,61.70
2017-07-10T08:43:32.353Z,62.80
2017-07-10T08:46:00.593Z,65.70
2017-07-10T08:48:29.603Z,66.50
2017-07-10T08:50:57.810Z,66.50
2017-07-10T08:53:26.037Z,67.90
2017-07-10T08:55:54.257Z,67.60
2017-07-10T08:58:22.475Z,65.30
2017-07-10T09:00:50.674Z,64.10
2017-07-10T09:03:19.650Z,58.20
2017-07-10T09:05:47.872Z,58.20
2017-07-10T09:08:16.169Z,58.50
2017-07-10T09:10:44.371Z,57.10
2017-07-10T09:13:12.586Z,55.60
2017-07-10T09:15:40.787Z,59.40
2017-07-10T09:18:08.981Z,55.60
2017-07-10T09:20:37.216Z,58.40
2017-07-10T09:23:05.424Z,56.80
2017-07-10T09:25:33.679Z,57.80
2017-07-10T09:28:01.946Z,55.50
2017-07-10T09:30:30.204Z,52.80
2017-07-10T09:32:59.228Z,53.00
2017-07-10T09:35:27.464Z,53.10
2017-07-10T09:37:55.669Z,48.40
2017-07-10T09:40:23.946Z,48.70
2017-07-10T09:42:52.223Z,50.80
2017-07-10T09:45:20.434Z,52.30
2017-07-10T09:47:48.752Z,54.90
2017-07-10T09:50:17.041Z,54.60
2017-07-10T09:52:46.006Z,58.20
2017-07-10T09:55:14.221Z,58.20
2017-07-10T09:57:42.450Z,59.10
2017-07-10T10:00:10.789Z,61.70
2017-07-10T10:02:38.988Z,60.60
2017-07-10T10:05:07.194Z,59.50
2017-07-10T10:07:35.429Z,57.70
2017-07-10T10:10:03.656Z,58.90
2017-07-10T10:12:31.865Z,57.80
2017-07-10T10:15:00.101Z,59.20
2017-07-10T10:17:28.323Z,60.80
2017-07-10T10:19:56.509Z,58.40
2017-07-10T10:22:24.866Z,57.00
2017-07-10T10:24:53.133Z,55.70
2017-07-10T10:27:22.115Z,53.90
2017-07-10T10:29:50.323Z,53.90
2017-07-10T10:32:18.603Z,50.80
2017-07-10T10:34:46.874Z,46.80
2017-07-10T10:37:15.088Z,46.50
2017-07-10T10:39:43.288Z,44.40
2017-07-10T10:42:11.506Z,41.10
2017-07-10T10:44:39.751Z,40.40
2017-07-10T10:47:07.956Z,41.10
2017-07-10T10:49:36.172Z,42.50
2017-07-10T10:52:04.375Z,44.60
2017-07-10T10:54:32.589Z,47.60
2017-07-10T10:57:00.796Z,47.50
2017-07-10T10:59:29.026Z,47.00
2017-07-10T11:01:58.023Z,52.20
2017-07-10T11:04:26.212Z,52.10
2017-07-10T11:06:54.495Z,53.90
2017-07-10T11:09:22.754Z,55.60
2017-07-10T11:11:51.027Z,57.00
2017-07-10T11:14:20.001Z,55.30
2017-07-10T11:16:48.217Z,55.30
2017-07-10T11:19:16.427Z,54.70
2017-07-10T11:21:44.639Z,53.90
2017-07-10T11:24:12.842Z,54.00
2017-07-10T11:26:41.081Z,53.40
2017-07-10T11:29:09.246Z,54.20
2017-07-10T11:31:37.450Z,54.80
2017-07-10T11:34:06.422Z,54.80
2017-07-10T11:36:34.627Z,54.70
2017-07-10T11:39:02.827Z,55.50
2017-07-10T11:41:31.182Z,55.40
2017-07-10T11:44:00.152Z,56.30
2017-07-10T11:46:28.354Z,56.30
2017-07-10T11:48:56.562Z,56.00
2017-07-10T11:51:24.782Z,55.10
2017-07-10T11:53:52.983Z,55.00
2017-07-10T11:56:21.286Z,55.30
2017-07-10T11:58:49.482Z,55.20
2017-07-10T12:01:17.696Z,53.30
2017-07-10T12:03:45.899Z,56.20
2017-07-10T12:06:14.113Z,54.70
2017-07-10T12:08:42.341Z,55.00
2017-07-10T12:11:10.531Z,53.70
2017-07-10T12:13:38.743Z,55.10
2017-07-10T12:16:06.947Z,55.40
2017-07-10T12:18:35.153Z,58.30
2017-07-10T12:21:03.387Z,59.70
2017-07-10T12:23:31.585Z,62.20
2017-07-10T12:25:59.796Z,61.70
2017-07-10T12:28:27.995Z,61.80
2017-07-10T12:30:56.351Z,60.00
2017-07-10T12:33:25.297Z,57.90
2017-07-10T12:35:53.498Z,57.80
2017-07-10T12:38:22.470Z,58.50
2017-07-10T12:40:50.706Z,58.50
2017-07-10T12:43:18.913Z,59.60
2017-07-10T12:45:47.136Z,60.20
2017-07-10T12:48:15.327Z,61.50
2017-07-10T12:50:43.590Z,61.10
2017-07-10T12:53:11.805Z,62.50
2017-07-10T12:55:40.123Z,64.30
2017-07-10T12:58:09.106Z,65.20
2017-07-10T13:00:37.314Z,65.20
2017-07-10T13:03:05.611Z,64.40
2017-07-10T13:05:33.849Z,63.30
2017-07-10T13:08:02.808Z,61.30
2017-07-10T13:10:31.022Z,61.20
2017-07-10T13:12:59.244Z,61.00
2017-07-10T13:15:27.449Z,60.10
2017-07-10T13:17:55.652Z,60.30
2017-07-10T13:20:24.128Z,58.80
2017-07-10T13:22:52.392Z,58.30
2017-07-10T13:25:20.592Z,57.50
2017-07-10T13:27:48.845Z,57.00
2017-07-10T13:30:17.238Z,58.00
2017-07-10T13:32:45.530Z,58.60
2017-07-10T13:35:13.744Z,58.10
2017-07-10T13:37:41.939Z,57.20
2017-07-10T13:40:10.150Z,58.40
2017-07-10T13:42:38.376Z,57.10
2017-07-10T13:45:06.718Z,56.30
2017-07-10T13:47:34.982Z,57.20
2017-07-10T13:50:03.969Z,59.70
2017-07-10T13:52:32.182Z,59.60
2017-07-10T13:55:00.378Z,55.70
2017-07-10T13:57:28.587Z,52.80
2017-07-10T13:59:56.811Z,51.50
2017-07-10T14:02:25.049Z,52.80
2017-07-10T14:04:54.153Z,54.80
2017-07-10T14:07:23.124Z,57.50
2017-07-10T14:09:51.335Z,57.50
2017-07-10T14:12:19.602Z,58.10
2017-07-10T14:14:48.579Z,58.40
2017-07-10T14:17:16.906Z,58.40
2017-07-10T14:19:45.107Z,58.90
2017-07-10T14:22:13.324Z,56.70
2017-07-10T14:24:41.583Z,56.70
2017-07-10T14:27:09.790Z,58.00
2017-07-10T14:29:37.993Z,58.70
2017-07-10T14:32:06.205Z,58.40
2017-07-10T14:34:34.502Z,57.90
2017-07-10T14:37:03.483Z,59.50
2017-07-10T14:39:31.676Z,59.50
2017-07-10T14:42:00.661Z,61.30
2017-07-10T14:44:28.887Z,61.30
2017-07-10T14:46:57.140Z,60.60
2017-07-10T14:49:25.334Z,60.90
2017-07-10T14:51:53.554Z,60.60
2017-07-10T14:54:21.767Z,59.60
2017-07-10T14:56:50.026Z,59.70
2017-07-10T14:59:19.002Z,60.30
2017-07-10T15:01:47.219Z,60.20
2017-07-10T15:04:15.457Z,59.70
2017-07-10T15:06:43.657Z,60.60
2017-07-10T15:09:12.039Z,60.40
2017-07-10T15:11:40.315Z,60.50
2017-07-10T15:14:08.546Z,62.40
2017-07-10T15:16:36.778Z,61.30
2017-07-10T15:19:04.991Z,61.30
2017-07-10T15:21:33.198Z,61.80
2017-07-10T15:24:01.404Z,61.70
2017-07-10T15:26:29.620Z,63.30
2017-07-10T15:28:57.824Z,62.90
2017-07-10T15:31:26.126Z,62.80
2017-07-10T15:33:54.337Z,64.30
2017-07-10T15:36:22.555Z,62.60
2017-07-10T15:38:50.756Z,59.20
2017-07-10T15:41:19.714Z,60.20
2017-07-10T15:43:47.957Z,60.10
2017-07-10T15:46:16.198Z,60.70
2017-07-10T15:48:44.428Z,59.20
2017-07-10T15:51:12.747Z,59.20
2017-07-10T15:53:41.837Z,59.30
2017-07-10T15:56:10.802Z,58.50
2017-07-10T15:58:39.018Z,58.50
2017-07-10T16:01:07.242Z,57.90
2017-07-10T16:03:35.458Z,57.70
2017-07-10T16:06:03.676Z,58.10
2017-07-10T16:08:32.123Z,57.80
2017-07-10T16:11:00.406Z,58.30
2017-07-10T16:13:29.511Z,58.60
2017-07-10T16:15:58.495Z,58.90
2017-07-10T16:18:26.704Z,58.80
2017-07-10T16:20:55.700Z,59.90
2017-07-10T16:23:24.078Z,60.20
2017-07-10T16:25:52.507Z,60.80
2017-07-10T16:28:20.717Z,60.50
2017-07-10T16:30:48.930Z,60.80
2017-07-10T16:33:17.146Z,60.20
2017-07-10T16:35:45.438Z,61.00
2017-07-10T16:38:14.426Z,61.30
2017-07-10T16:40:42.812Z,61.30
2017-07-10T16:43:11.083Z,60.80
2017-07-10T16:45:39.376Z,60.50
2017-07-10T16:48:07.613Z,59.10
2017-07-10T16:50:35.828Z,60.00
2017-07-10T16:53:04.023Z,60.00
2017-07-10T16:55:32.235Z,60.40
2017-07-10T16:58:00.438Z,60.40
2017-07-10T17:00:28.826Z,63.00
2017-07-10T17:02:57.105Z,64.50
2017-07-10T17:05:26.061Z,67.90
2017-07-10T17:07:54.271Z,67.80
2017-07-10T17:10:22.501Z,68.30
2017-07-10T17:12:50.713Z,68.50
2017-07-10T17:15:18.922Z,68.70
2017-07-10T17:17:47.148Z,70.10
2017-07-10T17:20:15.427Z,69.10
2017-07-10T17:22:43.587Z,70.40
2017-07-10T17:25:12.011Z,71.50
2017-07-10T17:27:40.988Z,72.30
2017-07-10T17:30:09.330Z,72.30
2017-07-10T17:32:37.540Z,69.00
2017-07-10T17:35:05.733Z,73.10
2017-07-10T17:37:34.719Z,69.00
2017-07-10T17:40:02.935Z,69.00
2017-07-10T17:42:31.125Z,66.50
2017-07-10T17:44:59.335Z,66.20
2017-07-10T17:47:27.576Z,66.80
2017-07-10T17:49:55.778Z,68.00
2017-07-10T17:52:23.994Z,66.30
2017-07-10T17:54:52.211Z,67.20
2017-07-10T17:57:20.429Z,67.60
2017-07-10T17:59:49.560Z,69.20
2017-07-10T18:02:17.770Z,69.30
2017-07-10T18:04:46.143Z,69.00
2017-07-10T18:07:14.392Z,69.10
2017-07-10T18:09:42.621Z,68.50
2017-07-10T18:12:10.838Z,70.10
2017-07-10T18:14:39.051Z,69.20
2017-07-10T18:17:07.272Z,70.00
2017-07-10T18:19:35.565Z,70.30
2017-07-10T18:22:03.766Z,68.70
2017-07-10T18:24:32.012Z,69.30
2017-07-10T18:27:00.275Z,70.20
2017-07-10T18:29:28.442Z,71.30
2017-07-10T18:31:56.663Z,71.80
2017-07-10T18:34:24.863Z,72.70
2017-07-10T18:36:53.135Z,71.00
2017-07-10T18:39:21.333Z,70.90
2017-07-10T18:41:49.725Z,69.60
2017-07-10T18:44:17.905Z,67.00
2017-07-10T18:46:46.909Z,71.80
2017-07-10T18:49:15.123Z,71.80
2017-07-10T18:51:43.325Z,72.90
2017-07-10T18:54:11.665Z,73.10
2017-07-10T18:56:40.231Z,73.10
2017-07-10T18:59:08.429Z,72.00
2017-07-10T19:01:36.634Z,73.40
2017-07-10T19:04:04.869Z,74.00
2017-07-10T19:06:33.284Z,74.60
2017-07-10T19:09:01.487Z,74.00
2017-07-10T19:11:30.617Z,74.80
2017-07-10T19:13:58.806Z,74.60
2017-07-10T19:16:27.094Z,74.30
2017-07-10T19:18:55.327Z,74.80
2017-07-10T19:21:23.509Z,76.90
2017-07-10T19:23:52.511Z,76.50
2017-07-10T19:26:20.735Z,75.80
2017-07-10T19:28:48.946Z,76.50
2017-07-10T19:31:17.162Z,76.90
2017-07-10T19:33:45.477Z,77.10
2017-07-10T19:36:13.689Z,78.40
2017-07-10T19:38:41.932Z,78.30
2017-07-10T19:41:10.253Z,78.70
2017-07-10T19:43:39.228Z,78.30
2017-07-10T19:46:07.450Z,78.30
2017-07-10T19:48:35.652Z,78.50
2017-07-10T19:51:03.881Z,78.70
2017-07-10T19:53:32.078Z,78.80
2017-07-10T19:56:00.294Z,79.10
2017-07-10T19:58:28.491Z,80.10
2017-07-10T20:00:57.535Z,79.40
2017-07-10T20:03:25.810Z,79.30
2017-07-10T20:05:54.045Z,78.10
2017-07-10T20:08:23.026Z,79.80
2017-07-10T20:10:51.229Z,79.10
2017-07-10T20:13:19.505Z,79.20
2017-07-10T20:15:48.498Z,79.00
2017-07-10T20:18:16.881Z,78.90
2017-07-10T20:20:45.135Z,79.10
2017-07-10T20:23:13.514Z,78.40
2017-07-10T20:25:41.830Z,78.10
2017-07-10T20:28:10.090Z,79.60
2017-07-10T20:30:38.354Z,79.10
2017-07-10T20:33:06.650Z,79.10
2017-07-10T20:35:35.621Z,80.30
2017-07-10T20:38:03.849Z,80.30
2017-07-10T20:40:32.102Z,79.80
2017-07-10T20:43:00.452Z,78.50
2017-07-10T20:45:28.645Z,79.70
2017-07-10T20:47:56.922Z,78.80
2017-07-10T20:50:25.207Z,79.60
2017-07-10T20:52:53.417Z,79.70
2017-07-10T20:55:21.643Z,80.40
2017-07-10T20:57:49.850Z,81.00
2017-07-10T21:00:18.053Z,81.10
2017-07-10T21:02:46.286Z,80.40
2017-07-10T21:05:14.578Z,80.50
2017-07-10T21:07:42.732Z,81.00
2017-07-10T21:10:11.724Z,80.90
2017-07-10T21:12:39.943Z,80.80
2017-07-10T21:15:08.176Z,80.10
2017-07-10T21:17:37.162Z,80.30
2017-07-10T21:20:05.560Z,80.90
2017-07-10T21:22:34.535Z,81.20
2017-07-10T21:25:02.746Z,81.20
2017-07-10T21:27:30.962Z,81.30
2017-07-10T21:30:00.477Z,81.20
2017-07-10T21:32:29.615Z,80.70
2017-07-10T21:34:59.098Z,81.30
2017-07-10T21:37:27.297Z,81.10
2017-07-10T21:39:56.282Z,81.50
2017-07-10T21:42:24.691Z,81.50
2017-07-10T21:44:52.982Z,82.60
2017-07-10T21:47:21.535Z,81.50
2017-07-10T21:49:49.745Z,81.10
2017-07-10T21:52:17.960Z,81.00
2017-07-10T21:54:46.167Z,81.00
2017-07-10T21:57:14.561Z,80.70
2017-07-10T21:59:42.758Z,81.50
2017-07-10T22:02:10.961Z,80.30
2017-07-10T22:04:39.377Z,81.40
2017-07-10T22:07:07.647Z,81.60
2017-07-10T22:09:36.756Z,82.50
2017-07-10T22:12:05.736Z,82.20
2017-07-10T22:14:34.038Z,82.20
2017-07-10T22:17:02.247Z,81.90
2017-07-10T22:19:30.470Z,83.20
2017-07-10T22:21:59.454Z,82.40
2017-07-10T22:24:27.650Z,82.30
2017-07-10T22:26:56.029Z,81.00
2017-07-10T22:29:24.229Z,81.20
2017-07-10T22:31:52.471Z,82.90
2017-07-10T22:34:21.466Z,82.20
2017-07-10T22:36:49.669Z,81.80
2017-07-10T22:39:17.877Z,82.10
2017-07-10T22:41:46.212Z,82.00
2017-07-10T22:44:15.184Z,81.90
2017-07-10T22:46:43.378Z,81.90
2017-07-10T22:49:12.376Z,82.60
2017-07-10T22:51:40.552Z,82.60
2017-07-10T22:54:09.539Z,82.90
2017-07-10T22:56:37.746Z,82.90
2017-07-10T22:59:06.206Z,83.40
2017-07-10T23:01:35.161Z,82.00
2017-07-10T23:04:03.403Z,82.00
2017-07-10T23:06:31.658Z,82.60
2017-07-10T23:08:59.937Z,82.70
2017-07-10T23:11:28.149Z,82.30
2017-07-10T23:13:56.368Z,82.30
2017-07-10T23:16:24.577Z,82.30
2017-07-10T23:18:52.785Z,83.20
2017-07-10T23:21:20.988Z,82.70
2017-07-10T23:23:49.226Z,82.90
2017-07-10T23:26:17.434Z,82.70
2017-07-10T23:28:45.634Z,82.80
2017-07-10T23:31:13.845Z,83.20
2017-07-10T23:33:42.114Z,83.40
2017-07-10T23:36:10.366Z,82.60
2017-07-10T23:38:38.566Z,83.90
2017-07-10T23:41:06.771Z,83.10
2017-07-10T23:43:34.994Z,83.20
2017-07-10T23:46:03.281Z,82.50
2017-07-10T23:48:31.755Z,83.30
2017-07-10T23:50:59.966Z,82.10
2017-07-10T23:53:28.156Z,82.60
2017-07-10T23:55:56.388Z,82.50
2017-07-10T23:58:24.583Z,82.50
